sensor_id;sensor_type;location;lat;lon;timestamp;temperature;humidity
2873;DHT22;1444;49.166;7.312;2022-12-07T00:02:26;5.50;99.90
2873;DHT22;1444;49.166;7.312;2022-12-07T00:04:53;5.60;99.90
2873;DHT22;1444;49.166;7.312;2022-12-07T00:07:20;5.60;99.90
2873;DHT22;1444;49.166;7.312;2022-12-07T00:09:47;5.70;99.90
2873;DHT22;1444;49.166;7.312;2022-12-07T00:12:13;5.60;99.70
2873;DHT22;1444;49.166;7.312;2022-12-07T00:14:40;5.60;99.90
2873;DHT22;1444;49.166;7.312;2022-12-07T00:17:07;5.60;99.70
2873;DHT22;1444;49.166;7.312;2022-12-07T00:19:35;5.70;99.90
2873;DHT22;1444;49.166;7.312;2022-12-07T00:22:02;5.70;99.90
2873;DHT22;1444;49.166;7.312;2022-12-07T00:24:28;5.60;99.90
2873;DHT22;1444;49.166;7.312;2022-12-07T00:26:55;5.50;99.90
2873;DHT22;1444;49.166;7.312;2022-12-07T00:29:22;5.40;99.70
2873;DHT22;1444;49.166;7.312;2022-12-07T00:31:49;5.30;99.80
2873;DHT22;1444;49.166;7.312;2022-12-07T00:34:17;5.20;99.30
2873;DHT22;1444;49.166;7.312;2022-12-07T00:36:46;5.30;99.40
2873;DHT22;1444;49.166;7.312;2022-12-07T00:39:13;5.20;99.20
2873;DHT22;1444;49.166;7.312;2022-12-07T00:41:40;6.20;99.90
2873;DHT22;1444;49.166;7.312;2022-12-07T00:44:07;5.30;99.10
2873;DHT22;1444;49.166;7.312;2022-12-07T00:46:33;5.20;99.30
2873;DHT22;1444;49.166;7.312;2022-12-07T00:49:00;5.10;99.40
2873;DHT22;1444;49.166;7.312;2022-12-07T00:51:27;5.00;99.70
2873;DHT22;1444;49.166;7.312;2022-12-07T00:53:55;5.10;99.90
2873;DHT22;1444;49.166;7.312;2022-12-07T00:56:23;5.20;99.90
2873;DHT22;1444;49.166;7.312;2022-12-07T00:58:52;5.30;99.90
2873;DHT22;1444;49.166;7.312;2022-12-07T01:01:19;5.40;99.90
2873;DHT22;1444;49.166;7.312;2022-12-07T01:03:46;5.40;99.90
2873;DHT22;1444;49.166;7.312;2022-12-07T01:06:14;5.40;99.90
2873;DHT22;1444;49.166;7.312;2022-12-07T01:08:41;5.40;99.90
2873;DHT22;1444;49.166;7.312;2022-12-07T01:11:13;5.50;99.90
2873;DHT22;1444;49.166;7.312;2022-12-07T01:13:40;5.50;99.90
2873;DHT22;1444;49.166;7.312;2022-12-07T01:16:09;5.60;99.90
2873;DHT22;1444;49.166;7.312;2022-12-07T01:18:36;5.60;99.80
2873;DHT22;1444;49.166;7.312;2022-12-07T01:21:06;5.50;99.50
2873;DHT22;1444;49.166;7.312;2022-12-07T01:23:34;5.30;99.90
2873;DHT22;1444;49.166;7.312;2022-12-07T01:26:03;5.30;99.90
2873;DHT22;1444;49.166;7.312;2022-12-07T01:28:31;5.30;99.90
2873;DHT22;1444;49.166;7.312;2022-12-07T01:30:58;5.30;99.90
2873;DHT22;1444;49.166;7.312;2022-12-07T01:33:27;5.20;99.90
2873;DHT22;1444;49.166;7.312;2022-12-07T01:35:55;5.20;99.90
2873;DHT22;1444;49.166;7.312;2022-12-07T01:38:26;5.20;99.90
2873;DHT22;1444;49.166;7.312;2022-12-07T01:40:56;5.30;99.90
2873;DHT22;1444;49.166;7.312;2022-12-07T01:43:26;5.40;99.90
2873;DHT22;1444;49.166;7.312;2022-12-07T01:45:55;5.40;99.90
2873;DHT22;1444;49.166;7.312;2022-12-07T01:48:24;5.30;99.90
2873;DHT22;1444;49.166;7.312;2022-12-07T01:50:53;5.20;99.90
2873;DHT22;1444;49.166;7.312;2022-12-07T01:53:21;5.10;99.90
2873;DHT22;1444;49.166;7.312;2022-12-07T01:55:52;5.00;99.90
2873;DHT22;1444;49.166;7.312;2022-12-07T01:58:20;4.90;99.90
2873;DHT22;1444;49.166;7.312;2022-12-07T02:00:47;4.80;99.90
2873;DHT22;1444;49.166;7.312;2022-12-07T02:03:18;4.80;99.90
2873;DHT22;1444;49.166;7.312;2022-12-07T02:05:46;4.60;99.90
2873;DHT22;1444;49.166;7.312;2022-12-07T02:08:14;4.70;99.90
2873;DHT22;1444;49.166;7.312;2022-12-07T02:10:42;4.60;99.90
2873;DHT22;1444;49.166;7.312;2022-12-07T02:13:11;4.60;99.90
2873;DHT22;1444;49.166;7.312;2022-12-07T02:15:48;4.70;99.90
2873;DHT22;1444;49.166;7.312;2022-12-07T02:18:23;4.80;99.90
2873;DHT22;1444;49.166;7.312;2022-12-07T02:20:56;4.80;99.90
2873;DHT22;1444;49.166;7.312;2022-12-07T02:29:33;4.40;99.90
2873;DHT22;1444;49.166;7.312;2022-12-07T02:32:06;4.40;99.90
2873;DHT22;1444;49.166;7.312;2022-12-07T02:34:40;4.30;99.90
2873;DHT22;1444;49.166;7.312;2022-12-07T02:37:13;4.30;99.90
2873;DHT22;1444;49.166;7.312;2022-12-07T02:39:47;4.30;99.90
2873;DHT22;1444;49.166;7.312;2022-12-07T02:42:20;4.30;99.90
2873;DHT22;1444;49.166;7.312;2022-12-07T02:44:50;4.40;99.90
2873;DHT22;1444;49.166;7.312;2022-12-07T02:47:19;4.50;99.90
2873;DHT22;1444;49.166;7.312;2022-12-07T02:49:49;4.60;99.90
2873;DHT22;1444;49.166;7.312;2022-12-07T02:52:16;4.70;99.90
2873;DHT22;1444;49.166;7.312;2022-12-07T02:54:42;4.80;99.90
2873;DHT22;1444;49.166;7.312;2022-12-07T02:57:20;4.70;99.90
2873;DHT22;1444;49.166;7.312;2022-12-07T03:00:03;4.60;99.90
2873;DHT22;1444;49.166;7.312;2022-12-07T03:02:38;4.50;99.90
2873;DHT22;1444;49.166;7.312;2022-12-07T03:05:31;4.40;99.90
2873;DHT22;1444;49.166;7.312;2022-12-07T03:08:06;4.30;99.90
2873;DHT22;1444;49.166;7.312;2022-12-07T03:10:39;4.30;99.90
2873;DHT22;1444;49.166;7.312;2022-12-07T03:13:12;4.40;99.90
2873;DHT22;1444;49.166;7.312;2022-12-07T03:15:45;4.60;99.90
2873;DHT22;1444;49.166;7.312;2022-12-07T03:18:17;4.70;99.90
2873;DHT22;1444;49.166;7.312;2022-12-07T03:20:46;4.70;99.90
2873;DHT22;1444;49.166;7.312;2022-12-07T03:23:15;4.60;99.90
2873;DHT22;1444;49.166;7.312;2022-12-07T03:25:47;4.50;99.90
2873;DHT22;1444;49.166;7.312;2022-12-07T03:28:16;4.50;99.90
2873;DHT22;1444;49.166;7.312;2022-12-07T03:30:47;4.30;99.90
2873;DHT22;1444;49.166;7.312;2022-12-07T03:33:18;4.30;99.90
2873;DHT22;1444;49.166;7.312;2022-12-07T03:35:50;4.40;99.90
2873;DHT22;1444;49.166;7.312;2022-12-07T03:38:21;4.50;99.90
2873;DHT22;1444;49.166;7.312;2022-12-07T03:40:54;4.60;99.90
2873;DHT22;1444;49.166;7.312;2022-12-07T03:43:23;4.50;99.90
2873;DHT22;1444;49.166;7.312;2022-12-07T03:46:00;4.40;99.90
2873;DHT22;1444;49.166;7.312;2022-12-07T03:48:33;4.40;99.90
2873;DHT22;1444;49.166;7.312;2022-12-07T03:51:08;4.40;99.90
2873;DHT22;1444;49.166;7.312;2022-12-07T03:53:42;4.40;99.90
2873;DHT22;1444;49.166;7.312;2022-12-07T03:56:11;4.40;99.90
2873;DHT22;1444;49.166;7.312;2022-12-07T03:58:38;4.50;99.90
2873;DHT22;1444;49.166;7.312;2022-12-07T04:01:07;4.60;99.90
2873;DHT22;1444;49.166;7.312;2022-12-07T04:03:34;4.70;99.90
2873;DHT22;1444;49.166;7.312;2022-12-07T04:06:01;4.90;99.90
2873;DHT22;1444;49.166;7.312;2022-12-07T04:08:28;4.90;99.90
2873;DHT22;1444;49.166;7.312;2022-12-07T04:10:55;4.90;99.90
2873;DHT22;1444;49.166;7.312;2022-12-07T04:13:21;4.80;99.90
2873;DHT22;1444;49.166;7.312;2022-12-07T04:15:48;4.70;99.90
2873;DHT22;1444;49.166;7.312;2022-12-07T04:18:16;4.70;99.90
2873;DHT22;1444;49.166;7.312;2022-12-07T04:20:43;4.60;99.90
2873;DHT22;1444;49.166;7.312;2022-12-07T04:23:10;4.60;99.90
2873;DHT22;1444;49.166;7.312;2022-12-07T04:25:37;4.60;99.90
2873;DHT22;1444;49.166;7.312;2022-12-07T04:28:03;4.70;99.90
2873;DHT22;1444;49.166;7.312;2022-12-07T04:30:30;4.90;99.90
2873;DHT22;1444;49.166;7.312;2022-12-07T04:32:57;4.90;99.90
2873;DHT22;1444;49.166;7.312;2022-12-07T04:35:25;4.90;99.90
2873;DHT22;1444;49.166;7.312;2022-12-07T04:37:52;4.90;99.90
2873;DHT22;1444;49.166;7.312;2022-12-07T04:40:19;4.80;99.90
2873;DHT22;1444;49.166;7.312;2022-12-07T04:42:45;4.90;99.90
2873;DHT22;1444;49.166;7.312;2022-12-07T04:45:12;4.90;99.90
2873;DHT22;1444;49.166;7.312;2022-12-07T04:47:39;4.90;99.90
2873;DHT22;1444;49.166;7.312;2022-12-07T04:50:06;4.90;99.90
2873;DHT22;1444;49.166;7.312;2022-12-07T04:52:35;4.90;99.90
2873;DHT22;1444;49.166;7.312;2022-12-07T04:55:01;4.90;99.90
2873;DHT22;1444;49.166;7.312;2022-12-07T04:57:28;4.80;99.90
2873;DHT22;1444;49.166;7.312;2022-12-07T04:59:55;4.80;99.90
2873;DHT22;1444;49.166;7.312;2022-12-07T05:02:22;4.70;99.90
2873;DHT22;1444;49.166;7.312;2022-12-07T05:04:48;4.70;99.90
2873;DHT22;1444;49.166;7.312;2022-12-07T05:07:15;4.70;99.90
2873;DHT22;1444;49.166;7.312;2022-12-07T05:09:43;4.70;99.90
2873;DHT22;1444;49.166;7.312;2022-12-07T05:12:10;4.70;99.90
2873;DHT22;1444;49.166;7.312;2022-12-07T05:14:37;4.70;99.90
2873;DHT22;1444;49.166;7.312;2022-12-07T05:17:03;4.70;99.90
2873;DHT22;1444;49.166;7.312;2022-12-07T05:19:30;4.80;99.90
2873;DHT22;1444;49.166;7.312;2022-12-07T05:21:57;4.80;99.90
2873;DHT22;1444;49.166;7.312;2022-12-07T05:24:23;4.90;99.90
2873;DHT22;1444;49.166;7.312;2022-12-07T05:26:52;5.00;99.90
2873;DHT22;1444;49.166;7.312;2022-12-07T05:29:18;5.00;99.90
2873;DHT22;1444;49.166;7.312;2022-12-07T05:31:45;5.00;99.90
2873;DHT22;1444;49.166;7.312;2022-12-07T05:34:12;5.00;99.90
2873;DHT22;1444;49.166;7.312;2022-12-07T05:36:39;5.00;99.90
2873;DHT22;1444;49.166;7.312;2022-12-07T05:39:06;4.90;99.90
2873;DHT22;1444;49.166;7.312;2022-12-07T05:41:33;4.90;99.90
2873;DHT22;1444;49.166;7.312;2022-12-07T05:44:19;4.90;99.90
2873;DHT22;1444;49.166;7.312;2022-12-07T05:46:46;5.00;99.90
2873;DHT22;1444;49.166;7.312;2022-12-07T05:49:12;5.10;99.90
2873;DHT22;1444;49.166;7.312;2022-12-07T05:51:39;5.20;99.90
2873;DHT22;1444;49.166;7.312;2022-12-07T05:54:06;5.20;99.90
2873;DHT22;1444;49.166;7.312;2022-12-07T05:56:33;5.10;99.90
2873;DHT22;1444;49.166;7.312;2022-12-07T05:58:59;4.90;99.90
2873;DHT22;1444;49.166;7.312;2022-12-07T06:01:45;4.70;99.90
2873;DHT22;1444;49.166;7.312;2022-12-07T06:04:12;4.70;99.90
2873;DHT22;1444;49.166;7.312;2022-12-07T06:06:39;4.70;99.90
2873;DHT22;1444;49.166;7.312;2022-12-07T06:09:07;4.80;99.90
2873;DHT22;1444;49.166;7.312;2022-12-07T06:11:34;4.80;99.90
2873;DHT22;1444;49.166;7.312;2022-12-07T06:14:18;4.90;99.90
2873;DHT22;1444;49.166;7.312;2022-12-07T06:16:46;4.90;99.90
2873;DHT22;1444;49.166;7.312;2022-12-07T06:19:13;5.00;99.90
2873;DHT22;1444;49.166;7.312;2022-12-07T06:21:40;5.00;99.90
2873;DHT22;1444;49.166;7.312;2022-12-07T06:24:08;5.00;99.90
2873;DHT22;1444;49.166;7.312;2022-12-07T06:26:35;5.00;99.90
2873;DHT22;1444;49.166;7.312;2022-12-07T06:29:02;5.00;99.90
2873;DHT22;1444;49.166;7.312;2022-12-07T06:31:29;4.90;99.90
2873;DHT22;1444;49.166;7.312;2022-12-07T06:33:59;4.90;99.90
2873;DHT22;1444;49.166;7.312;2022-12-07T06:36:25;5.00;99.90
2873;DHT22;1444;49.166;7.312;2022-12-07T06:38:52;5.10;99.90
2873;DHT22;1444;49.166;7.312;2022-12-07T06:41:20;5.20;99.90
2873;DHT22;1444;49.166;7.312;2022-12-07T06:43:47;5.10;99.90
2873;DHT22;1444;49.166;7.312;2022-12-07T06:46:14;5.10;99.90
2873;DHT22;1444;49.166;7.312;2022-12-07T06:48:41;5.00;99.90
2873;DHT22;1444;49.166;7.312;2022-12-07T06:51:09;5.00;99.90
2873;DHT22;1444;49.166;7.312;2022-12-07T06:53:37;5.00;99.90
2873;DHT22;1444;49.166;7.312;2022-12-07T06:56:04;5.00;99.90
2873;DHT22;1444;49.166;7.312;2022-12-07T06:58:31;5.10;99.90
2873;DHT22;1444;49.166;7.312;2022-12-07T07:00:58;5.10;99.90
2873;DHT22;1444;49.166;7.312;2022-12-07T07:03:25;5.00;99.90
2873;DHT22;1444;49.166;7.312;2022-12-07T07:05:51;4.90;99.90
2873;DHT22;1444;49.166;7.312;2022-12-07T07:08:20;4.90;99.90
2873;DHT22;1444;49.166;7.312;2022-12-07T07:10:46;5.00;99.90
2873;DHT22;1444;49.166;7.312;2022-12-07T07:13:13;5.00;99.90
2873;DHT22;1444;49.166;7.312;2022-12-07T07:15:40;5.00;99.90
2873;DHT22;1444;49.166;7.312;2022-12-07T07:18:08;5.20;99.90
2873;DHT22;1444;49.166;7.312;2022-12-07T07:20:34;5.20;99.90
2873;DHT22;1444;49.166;7.312;2022-12-07T07:23:01;5.30;99.90
2873;DHT22;1444;49.166;7.312;2022-12-07T07:25:29;5.40;99.90
2873;DHT22;1444;49.166;7.312;2022-12-07T07:27:56;5.40;99.90
2873;DHT22;1444;49.166;7.312;2022-12-07T07:30:23;5.40;99.90
2873;DHT22;1444;49.166;7.312;2022-12-07T07:32:50;5.30;99.90
2873;DHT22;1444;49.166;7.312;2022-12-07T07:35:17;5.30;99.90
2873;DHT22;1444;49.166;7.312;2022-12-07T07:37:43;5.20;99.90
2873;DHT22;1444;49.166;7.312;2022-12-07T07:40:11;5.20;99.90
2873;DHT22;1444;49.166;7.312;2022-12-07T07:42:39;5.20;99.90
2873;DHT22;1444;49.166;7.312;2022-12-07T07:45:06;5.20;99.90
2873;DHT22;1444;49.166;7.312;2022-12-07T07:47:33;5.20;99.90
2873;DHT22;1444;49.166;7.312;2022-12-07T07:50:00;5.20;99.90
2873;DHT22;1444;49.166;7.312;2022-12-07T07:52:27;5.10;99.90
2873;DHT22;1444;49.166;7.312;2022-12-07T07:54:54;5.10;99.90
2873;DHT22;1444;49.166;7.312;2022-12-07T07:57:20;5.10;99.90
2873;DHT22;1444;49.166;7.312;2022-12-07T07:59:49;5.10;99.90
2873;DHT22;1444;49.166;7.312;2022-12-07T08:02:17;5.10;99.90
2873;DHT22;1444;49.166;7.312;2022-12-07T08:04:44;5.10;99.90
2873;DHT22;1444;49.166;7.312;2022-12-07T08:07:12;5.10;99.90
2873;DHT22;1444;49.166;7.312;2022-12-07T08:09:39;5.10;99.90
2873;DHT22;1444;49.166;7.312;2022-12-07T08:12:06;5.10;99.90
2873;DHT22;1444;49.166;7.312;2022-12-07T08:14:33;5.00;99.90
2873;DHT22;1444;49.166;7.312;2022-12-07T08:17:02;5.10;99.90
2873;DHT22;1444;49.166;7.312;2022-12-07T08:19:29;5.10;99.90
2873;DHT22;1444;49.166;7.312;2022-12-07T08:21:55;5.20;99.90
2873;DHT22;1444;49.166;7.312;2022-12-07T08:24:22;5.20;99.90
2873;DHT22;1444;49.166;7.312;2022-12-07T08:26:50;5.30;99.90
2873;DHT22;1444;49.166;7.312;2022-12-07T08:29:17;5.30;99.90
2873;DHT22;1444;49.166;7.312;2022-12-07T08:31:44;5.20;99.90
2873;DHT22;1444;49.166;7.312;2022-12-07T08:34:12;5.20;99.90
2873;DHT22;1444;49.166;7.312;2022-12-07T08:36:39;5.30;99.90
2873;DHT22;1444;49.166;7.312;2022-12-07T08:39:06;5.30;99.90
2873;DHT22;1444;49.166;7.312;2022-12-07T08:41:33;5.50;99.90
2873;DHT22;1444;49.166;7.312;2022-12-07T08:44:00;5.50;99.90
2873;DHT22;1444;49.166;7.312;2022-12-07T08:46:30;5.60;99.90
2873;DHT22;1444;49.166;7.312;2022-12-07T08:49:03;5.50;99.90
2873;DHT22;1444;49.166;7.312;2022-12-07T08:51:31;5.40;99.90
2873;DHT22;1444;49.166;7.312;2022-12-07T08:53:59;5.40;99.90
2873;DHT22;1444;49.166;7.312;2022-12-07T08:56:27;5.40;99.90
2873;DHT22;1444;49.166;7.312;2022-12-07T08:58:54;5.40;99.90
2873;DHT22;1444;49.166;7.312;2022-12-07T09:01:21;5.40;99.90
2873;DHT22;1444;49.166;7.312;2022-12-07T09:03:48;5.30;99.90
2873;DHT22;1444;49.166;7.312;2022-12-07T09:06:15;5.30;99.90
2873;DHT22;1444;49.166;7.312;2022-12-07T09:08:47;5.30;99.90
2873;DHT22;1444;49.166;7.312;2022-12-07T09:11:14;5.30;99.90
2873;DHT22;1444;49.166;7.312;2022-12-07T09:13:41;5.40;99.90
2873;DHT22;1444;49.166;7.312;2022-12-07T09:16:07;5.40;99.90
2873;DHT22;1444;49.166;7.312;2022-12-07T09:18:34;5.30;99.90
2873;DHT22;1444;49.166;7.312;2022-12-07T09:21:01;5.40;99.90
2873;DHT22;1444;49.166;7.312;2022-12-07T09:23:28;5.30;99.90
2873;DHT22;1444;49.166;7.312;2022-12-07T09:25:59;5.40;99.90
2873;DHT22;1444;49.166;7.312;2022-12-07T09:28:26;5.30;99.90
2873;DHT22;1444;49.166;7.312;2022-12-07T09:30:52;5.40;99.90
2873;DHT22;1444;49.166;7.312;2022-12-07T09:33:19;5.50;99.90
2873;DHT22;1444;49.166;7.312;2022-12-07T09:35:46;5.40;99.90
2873;DHT22;1444;49.166;7.312;2022-12-07T09:38:13;5.40;99.90
2873;DHT22;1444;49.166;7.312;2022-12-07T09:40:41;5.50;99.90
2873;DHT22;1444;49.166;7.312;2022-12-07T09:43:15;5.50;99.90
2873;DHT22;1444;49.166;7.312;2022-12-07T09:48:17;5.40;99.90
2873;DHT22;1444;49.166;7.312;2022-12-07T09:50:45;5.40;99.90
2873;DHT22;1444;49.166;7.312;2022-12-07T09:53:15;5.40;99.90
2873;DHT22;1444;49.166;7.312;2022-12-07T09:55:45;5.50;99.90
2873;DHT22;1444;49.166;7.312;2022-12-07T09:58:19;5.50;99.90
2873;DHT22;1444;49.166;7.312;2022-12-07T10:00:46;5.50;99.90
2873;DHT22;1444;49.166;7.312;2022-12-07T10:03:13;5.50;99.90
2873;DHT22;1444;49.166;7.312;2022-12-07T10:05:43;5.50;99.90
2873;DHT22;1444;49.166;7.312;2022-12-07T10:08:11;5.50;99.90
2873;DHT22;1444;49.166;7.312;2022-12-07T10:10:38;5.50;99.90
2873;DHT22;1444;49.166;7.312;2022-12-07T10:13:08;5.50;99.90
2873;DHT22;1444;49.166;7.312;2022-12-07T10:15:49;5.50;99.90
2873;DHT22;1444;49.166;7.312;2022-12-07T10:18:26;5.50;99.90
2873;DHT22;1444;49.166;7.312;2022-12-07T10:23:27;5.70;99.90
2873;DHT22;1444;49.166;7.312;2022-12-07T10:25:54;5.60;99.90
2873;DHT22;1444;49.166;7.312;2022-12-07T10:30:54;5.60;99.90
2873;DHT22;1444;49.166;7.312;2022-12-07T10:33:29;5.70;99.90
2873;DHT22;1444;49.166;7.312;2022-12-07T10:35:58;5.80;99.90
2873;DHT22;1444;49.166;7.312;2022-12-07T10:38:26;5.70;99.90
2873;DHT22;1444;49.166;7.312;2022-12-07T10:41:03;5.80;99.90
2873;DHT22;1444;49.166;7.312;2022-12-07T10:43:30;5.90;99.90
2873;DHT22;1444;49.166;7.312;2022-12-07T10:46:28;5.90;99.90
2873;DHT22;1444;49.166;7.312;2022-12-07T10:49:07;6.00;99.90
2873;DHT22;1444;49.166;7.312;2022-12-07T10:51:43;6.00;99.90
2873;DHT22;1444;49.166;7.312;2022-12-07T10:54:18;6.00;99.90
2873;DHT22;1444;49.166;7.312;2022-12-07T10:57:05;5.80;99.90
2873;DHT22;1444;49.166;7.312;2022-12-07T10:59:54;5.80;99.90
2873;DHT22;1444;49.166;7.312;2022-12-07T11:02:39;5.80;99.90
2873;DHT22;1444;49.166;7.312;2022-12-07T11:05:19;5.90;99.90
2873;DHT22;1444;49.166;7.312;2022-12-07T11:07:59;5.80;99.90
2873;DHT22;1444;49.166;7.312;2022-12-07T11:10:35;5.70;99.90
2873;DHT22;1444;49.166;7.312;2022-12-07T11:13:22;5.80;99.90
2873;DHT22;1444;49.166;7.312;2022-12-07T11:16:01;5.80;99.90
2873;DHT22;1444;49.166;7.312;2022-12-07T11:18:35;5.70;99.90
2873;DHT22;1444;49.166;7.312;2022-12-07T11:21:15;5.70;99.90
2873;DHT22;1444;49.166;7.312;2022-12-07T11:23:49;5.90;99.90
2873;DHT22;1444;49.166;7.312;2022-12-07T11:26:26;5.90;99.90
2873;DHT22;1444;49.166;7.312;2022-12-07T11:29:10;6.00;99.90
2873;DHT22;1444;49.166;7.312;2022-12-07T11:31:50;6.00;99.90
2873;DHT22;1444;49.166;7.312;2022-12-07T11:34:32;6.10;99.90
2873;DHT22;1444;49.166;7.312;2022-12-07T11:37:07;6.00;99.90
2873;DHT22;1444;49.166;7.312;2022-12-07T11:39:42;5.90;99.90
2873;DHT22;1444;49.166;7.312;2022-12-07T11:42:15;6.00;99.90
2873;DHT22;1444;49.166;7.312;2022-12-07T11:44:48;6.10;99.90
2873;DHT22;1444;49.166;7.312;2022-12-07T11:47:22;6.20;99.90
2873;DHT22;1444;49.166;7.312;2022-12-07T11:49:54;6.20;99.90
2873;DHT22;1444;49.166;7.312;2022-12-07T11:52:30;6.30;99.90
2873;DHT22;1444;49.166;7.312;2022-12-07T11:54:57;6.30;99.90
2873;DHT22;1444;49.166;7.312;2022-12-07T11:57:33;6.40;99.90
2873;DHT22;1444;49.166;7.312;2022-12-07T12:00:06;6.60;99.90
2873;DHT22;1444;49.166;7.312;2022-12-07T12:02:46;6.60;99.90
2873;DHT22;1444;49.166;7.312;2022-12-07T12:05:18;6.70;99.90
2873;DHT22;1444;49.166;7.312;2022-12-07T12:07:49;6.70;99.90
2873;DHT22;1444;49.166;7.312;2022-12-07T12:10:24;6.70;99.90
2873;DHT22;1444;49.166;7.312;2022-12-07T12:13:22;6.60;99.90
2873;DHT22;1444;49.166;7.312;2022-12-07T12:16:12;6.70;99.90
2873;DHT22;1444;49.166;7.312;2022-12-07T12:18:49;6.70;99.90
2873;DHT22;1444;49.166;7.312;2022-12-07T12:21:22;6.70;99.90
2873;DHT22;1444;49.166;7.312;2022-12-07T12:23:57;6.70;99.90
2873;DHT22;1444;49.166;7.312;2022-12-07T12:26:28;6.70;99.90
2873;DHT22;1444;49.166;7.312;2022-12-07T12:28:56;6.70;99.90
2873;DHT22;1444;49.166;7.312;2022-12-07T12:31:42;6.70;99.90
2873;DHT22;1444;49.166;7.312;2022-12-07T12:34:38;6.70;99.90
2873;DHT22;1444;49.166;7.312;2022-12-07T12:37:42;6.70;99.90
2873;DHT22;1444;49.166;7.312;2022-12-07T12:40:38;6.70;99.90
2873;DHT22;1444;49.166;7.312;2022-12-07T12:46:45;6.70;99.90
2873;DHT22;1444;49.166;7.312;2022-12-07T12:49:38;8.30;99.90
2873;DHT22;1444;49.166;7.312;2022-12-07T12:52:47;6.70;99.90
2873;DHT22;1444;49.166;7.312;2022-12-07T12:55:53;6.70;99.90
2873;DHT22;1444;49.166;7.312;2022-12-07T12:58:33;6.70;99.90
2873;DHT22;1444;49.166;7.312;2022-12-07T13:01:38;6.70;99.90
2873;DHT22;1444;49.166;7.312;2022-12-07T13:04:36;6.80;99.90
2873;DHT22;1444;49.166;7.312;2022-12-07T13:07:08;6.90;99.90
2873;DHT22;1444;49.166;7.312;2022-12-07T13:09:42;6.90;99.90
2873;DHT22;1444;49.166;7.312;2022-12-07T13:12:14;6.90;99.90
2873;DHT22;1444;49.166;7.312;2022-12-07T13:14:56;6.80;99.90
2873;DHT22;1444;49.166;7.312;2022-12-07T13:17:56;6.80;99.90
2873;DHT22;1444;49.166;7.312;2022-12-07T13:20:49;6.80;99.90
2873;DHT22;1444;49.166;7.312;2022-12-07T13:23:21;6.80;99.90
2873;DHT22;1444;49.166;7.312;2022-12-07T13:25:56;6.80;99.90
2873;DHT22;1444;49.166;7.312;2022-12-07T13:28:31;6.90;99.90
2873;DHT22;1444;49.166;7.312;2022-12-07T13:31:04;6.90;99.90
2873;DHT22;1444;49.166;7.312;2022-12-07T13:33:35;6.90;99.90
2873;DHT22;1444;49.166;7.312;2022-12-07T13:36:03;6.90;99.90
2873;DHT22;1444;49.166;7.312;2022-12-07T13:38:32;6.90;99.60
2873;DHT22;1444;49.166;7.312;2022-12-07T13:41:04;6.90;99.80
2873;DHT22;1444;49.166;7.312;2022-12-07T13:43:41;6.90;99.70
2873;DHT22;1444;49.166;7.312;2022-12-07T13:46:09;6.90;99.90
2873;DHT22;1444;49.166;7.312;2022-12-07T13:48:44;7.00;99.70
2873;DHT22;1444;49.166;7.312;2022-12-07T13:51:17;7.00;99.50
2873;DHT22;1444;49.166;7.312;2022-12-07T13:53:47;7.10;99.60
2873;DHT22;1444;49.166;7.312;2022-12-07T13:56:15;7.10;99.50
2873;DHT22;1444;49.166;7.312;2022-12-07T13:58:42;7.10;99.80
2873;DHT22;1444;49.166;7.312;2022-12-07T14:01:10;7.00;99.60
2873;DHT22;1444;49.166;7.312;2022-12-07T14:03:38;6.90;99.90
2873;DHT22;1444;49.166;7.312;2022-12-07T14:06:13;6.90;99.90
2873;DHT22;1444;49.166;7.312;2022-12-07T14:08:41;6.90;99.90
2873;DHT22;1444;49.166;7.312;2022-12-07T14:11:12;6.80;99.60
2873;DHT22;1444;49.166;7.312;2022-12-07T14:13:47;6.70;99.60
2873;DHT22;1444;49.166;7.312;2022-12-07T14:16:23;6.70;99.80
2873;DHT22;1444;49.166;7.312;2022-12-07T14:18:52;6.70;99.60
2873;DHT22;1444;49.166;7.312;2022-12-07T14:21:19;6.70;99.60
2873;DHT22;1444;49.166;7.312;2022-12-07T14:24:04;6.70;99.60
2873;DHT22;1444;49.166;7.312;2022-12-07T14:26:34;6.70;99.40
2873;DHT22;1444;49.166;7.312;2022-12-07T14:29:20;6.70;99.40
2873;DHT22;1444;49.166;7.312;2022-12-07T14:31:47;6.70;99.30
2873;DHT22;1444;49.166;7.312;2022-12-07T14:34:14;6.70;99.50
2873;DHT22;1444;49.166;7.312;2022-12-07T14:36:41;6.80;99.80
2873;DHT22;1444;49.166;7.312;2022-12-07T14:39:08;6.80;99.80
2873;DHT22;1444;49.166;7.312;2022-12-07T14:41:34;6.70;99.80
2873;DHT22;1444;49.166;7.312;2022-12-07T14:44:19;6.70;99.80
2873;DHT22;1444;49.166;7.312;2022-12-07T14:46:48;6.60;99.80
2873;DHT22;1444;49.166;7.312;2022-12-07T14:49:15;6.60;99.80
2873;DHT22;1444;49.166;7.312;2022-12-07T14:51:42;6.70;99.80
2873;DHT22;1444;49.166;7.312;2022-12-07T14:54:16;6.70;99.70
2873;DHT22;1444;49.166;7.312;2022-12-07T14:56:44;6.70;99.70
2873;DHT22;1444;49.166;7.312;2022-12-07T14:59:14;6.60;99.90
2873;DHT22;1444;49.166;7.312;2022-12-07T15:01:41;6.60;99.50
2873;DHT22;1444;49.166;7.312;2022-12-07T15:04:09;6.50;99.90
2873;DHT22;1444;49.166;7.312;2022-12-07T15:06:36;6.40;99.70
2873;DHT22;1444;49.166;7.312;2022-12-07T15:09:03;6.30;99.90
2873;DHT22;1444;49.166;7.312;2022-12-07T15:11:30;6.30;99.90
2873;DHT22;1444;49.166;7.312;2022-12-07T15:13:57;6.20;99.90
2873;DHT22;1444;49.166;7.312;2022-12-07T15:16:39;6.20;99.90
2873;DHT22;1444;49.166;7.312;2022-12-07T15:19:12;6.20;99.90
2873;DHT22;1444;49.166;7.312;2022-12-07T15:21:39;6.20;99.90
2873;DHT22;1444;49.166;7.312;2022-12-07T15:24:08;6.20;99.90
2873;DHT22;1444;49.166;7.312;2022-12-07T15:26:35;6.20;99.90
2873;DHT22;1444;49.166;7.312;2022-12-07T15:29:02;6.10;99.90
2873;DHT22;1444;49.166;7.312;2022-12-07T15:31:28;6.00;99.90
2873;DHT22;1444;49.166;7.312;2022-12-07T15:33:55;5.90;99.90
2873;DHT22;1444;49.166;7.312;2022-12-07T15:36:26;5.80;99.90
2873;DHT22;1444;49.166;7.312;2022-12-07T15:38:54;5.80;99.90
2873;DHT22;1444;49.166;7.312;2022-12-07T15:41:21;5.80;99.90
2873;DHT22;1444;49.166;7.312;2022-12-07T15:43:47;5.80;99.90
2873;DHT22;1444;49.166;7.312;2022-12-07T15:46:33;5.80;99.90
2873;DHT22;1444;49.166;7.312;2022-12-07T15:49:00;5.80;99.90
2873;DHT22;1444;49.166;7.312;2022-12-07T15:51:29;5.80;99.90
2873;DHT22;1444;49.166;7.312;2022-12-07T15:53:57;5.70;99.90
2873;DHT22;1444;49.166;7.312;2022-12-07T15:56:24;5.80;99.90
2873;DHT22;1444;49.166;7.312;2022-12-07T15:58:50;5.80;99.90
2873;DHT22;1444;49.166;7.312;2022-12-07T16:01:19;5.80;99.90
2873;DHT22;1444;49.166;7.312;2022-12-07T16:06:15;5.80;99.90
2873;DHT22;1444;49.166;7.312;2022-12-07T16:08:44;5.80;99.90
2873;DHT22;1444;49.166;7.312;2022-12-07T16:13:38;5.90;99.90
2873;DHT22;1444;49.166;7.312;2022-12-07T16:16:07;5.80;99.90
2873;DHT22;1444;49.166;7.312;2022-12-07T16:18:34;5.80;99.90
2873;DHT22;1444;49.166;7.312;2022-12-07T16:21:01;5.80;99.90
2873;DHT22;1444;49.166;7.312;2022-12-07T16:23:29;5.60;99.90
2873;DHT22;1444;49.166;7.312;2022-12-07T16:26:03;5.70;99.90
2873;DHT22;1444;49.166;7.312;2022-12-07T16:28:30;5.70;99.90
2873;DHT22;1444;49.166;7.312;2022-12-07T16:31:01;5.70;99.90
2873;DHT22;1444;49.166;7.312;2022-12-07T16:33:27;5.60;99.90
2873;DHT22;1444;49.166;7.312;2022-12-07T16:35:54;5.50;99.90
2873;DHT22;1444;49.166;7.312;2022-12-07T16:38:21;5.50;99.90
2873;DHT22;1444;49.166;7.312;2022-12-07T16:40:47;5.40;99.90
2873;DHT22;1444;49.166;7.312;2022-12-07T16:43:15;5.40;99.90
2873;DHT22;1444;49.166;7.312;2022-12-07T16:45:42;5.40;99.90
2873;DHT22;1444;49.166;7.312;2022-12-07T16:48:09;5.30;99.90
2873;DHT22;1444;49.166;7.312;2022-12-07T16:50:39;5.20;99.90
2873;DHT22;1444;49.166;7.312;2022-12-07T16:53:06;5.20;99.90
2873;DHT22;1444;49.166;7.312;2022-12-07T16:55:35;5.20;99.90
2873;DHT22;1444;49.166;7.312;2022-12-07T16:58:02;5.00;99.90
2873;DHT22;1444;49.166;7.312;2022-12-07T17:00:31;4.90;99.90
2873;DHT22;1444;49.166;7.312;2022-12-07T17:02:58;4.70;99.90